Time;durP1;ratioP1;P1;durP2;ratioP2;P2;SDS_P1;SDS_P2;PMS_P1;PMS_P2;Temp;Humidity;BMP_temperature;BMP_pressure;BME280_temperature;BME280_humidity;BME280_pressure;Samples;Min_cycle;Max_cycle;Signal;HPM_P1;HPM_P2
2022/11/06 00:01:36;;;;;;;;;;;26.60;91.00;;;;;;5040332;28;19921;-77
2022/11/06 00:04:03;;;;;;;;;;;26.60;91.00;;;;;;5054881;28;19909;-78
2022/11/06 00:06:48;;;;;;;;;;;26.60;90.50;;;;;;5052549;28;19919;-70
2022/11/06 00:09:16;;;;;;;;;;;26.60;91.20;;;;;;5043225;28;19920;-77
2022/11/06 00:11:43;;;;;;;;;;;27.00;91.00;;;;;;5037041;28;19913;-73
2022/11/06 00:14:09;;;;;;;;;;;27.40;91.10;;;;;;5054382;28;20332;-76
2022/11/06 00:16:37;;;;;;;;;;;27.80;90.90;;;;;;5048038;28;20019;-77
2022/11/06 00:19:04;;;;;;;;;;;27.50;89.80;;;;;;5054416;28;19909;-75
2022/11/06 00:21:31;;;;;;;;;;;27.50;89.30;;;;;;5052822;28;19963;-72
2022/11/06 00:23:58;;;;;;;;;;;27.40;90.30;;;;;;5054364;28;19913;-76
2022/11/06 00:26:26;;;;;;;;;;;27.50;90.70;;;;;;5052637;28;19935;-76
2022/11/06 00:28:53;;;;;;;;;;;27.40;90.00;;;;;;5043344;28;19963;-77
2022/11/06 00:31:24;;;;;;;;;;;27.10;90.10;;;;;;5034275;28;19963;-77
2022/11/06 00:33:51;;;;;;;;;;;27.20;90.00;;;;;;5048914;28;20027;-76
2022/11/06 00:36:19;;;;;;;;;;;27.30;91.00;;;;;;5059851;28;19955;-74
2022/11/06 00:38:46;;;;;;;;;;;27.50;88.50;;;;;;5093421;28;19943;-75
2022/11/06 00:41:14;;;;;;;;;;;27.30;90.20;;;;;;5093636;28;19916;-72
2022/11/06 00:43:41;;;;;;;;;;;27.40;90.80;;;;;;5087527;28;19958;-78
2022/11/06 00:46:09;;;;;;;;;;;27.30;91.10;;;;;;5074067;28;19959;-77
2022/11/06 00:48:36;;;;;;;;;;;27.10;90.70;;;;;;5072722;28;19913;-77
2022/11/06 00:51:07;;;;;;;;;;;27.00;89.90;;;;;;5073781;28;19917;-70
2022/11/06 00:53:34;;;;;;;;;;;26.60;90.40;;;;;;5079762;28;19970;-75
2022/11/06 00:56:08;;;;;;;;;;;26.20;90.70;;;;;;5071747;28;19924;-73
2022/11/06 00:58:36;;;;;;;;;;;26.10;91.20;;;;;;5089559;28;19947;-79
2022/11/06 01:01:21;;;;;;;;;;;26.80;91.40;;;;;;5093760;28;19916;-76
2022/11/06 01:03:51;;;;;;;;;;;27.50;92.70;;;;;;5072467;28;19924;-76
2022/11/06 01:06:20;;;;;;;;;;;28.20;90.70;;;;;;5053426;28;19912;-76
2022/11/06 01:08:47;;;;;;;;;;;28.60;89.20;;;;;;5092860;28;20374;-76
2022/11/06 01:11:34;;;;;;;;;;;28.80;88.80;;;;;;5078280;28;19995;-75
2022/11/06 01:14:01;;;;;;;;;;;28.90;87.10;;;;;;5073278;28;19924;-77
2022/11/06 01:16:29;;;;;;;;;;;28.60;88.50;;;;;;5071765;28;19967;-76
2022/11/06 01:18:56;;;;;;;;;;;28.60;87.70;;;;;;5086572;28;19913;-74
2022/11/06 01:21:24;;;;;;;;;;;28.50;88.00;;;;;;5070388;28;19912;-77
2022/11/06 01:23:58;;;;;;;;;;;28.50;88.50;;;;;;5062462;28;19919;-78
2022/11/06 01:26:25;;;;;;;;;;;28.20;88.90;;;;;;5076875;28;19916;-78
2022/11/06 01:28:51;;;;;;;;;;;28.40;88.10;;;;;;5071339;28;19913;-73
2022/11/06 01:31:19;;;;;;;;;;;28.80;87.00;;;;;;5075926;28;20347;-74
2022/11/06 01:33:46;;;;;;;;;;;29.10;84.40;;;;;;5092136;28;19945;-77
2022/11/06 01:36:14;;;;;;;;;;;29.20;85.20;;;;;;5088163;28;20234;-76
2022/11/06 01:38:44;;;;;;;;;;;29.40;86.10;;;;;;5090767;28;20376;-78
2022/11/06 01:41:12;;;;;;;;;;;29.70;83.50;;;;;;5093299;28;19908;-77
2022/11/06 01:43:49;;;;;;;;;;;29.90;86.00;;;;;;5088840;28;20365;-74
2022/11/06 01:46:17;;;;;;;;;;;29.90;84.20;;;;;;5070814;28;19912;-78
2022/11/06 01:48:45;;;;;;;;;;;30.00;84.30;;;;;;5071301;28;19916;-78
2022/11/06 01:51:12;;;;;;;;;;;30.10;82.50;;;;;;5070797;28;20358;-78
2022/11/06 01:53:39;;;;;;;;;;;30.10;83.60;;;;;;5090398;28;20366;-74
2022/11/06 01:56:08;;;;;;;;;;;29.80;82.60;;;;;;5091688;28;20011;-79
2022/11/06 01:58:42;;;;;;;;;;;29.50;83.60;;;;;;5089011;28;19912;-79
2022/11/06 02:01:09;;;;;;;;;;;28.90;84.00;;;;;;5083521;28;19916;-79
2022/11/06 02:03:36;;;;;;;;;;;28.90;84.80;;;;;;5088996;28;19937;-76
2022/11/06 02:06:03;;;;;;;;;;;29.20;84.60;;;;;;5092618;28;19944;-73
2022/11/06 02:08:30;;;;;;;;;;;29.50;82.00;;;;;;5081204;28;19920;-74
2022/11/06 02:10:57;;;;;;;;;;;29.40;82.90;;;;;;5072497;28;19916;-73
2022/11/06 02:13:31;;;;;;;;;;;29.70;83.90;;;;;;5084720;28;20272;-76
2022/11/06 02:16:09;;;;;;;;;;;30.10;88.00;;;;;;5071429;28;19916;-76
2022/11/06 02:18:42;;;;;;;;;;;30.80;83.30;;;;;;5073285;28;19919;-77
2022/11/06 02:21:14;;;;;;;;;;;30.50;80.90;;;;;;5072756;28;19920;-74
2022/11/06 02:23:50;;;;;;;;;;;30.50;83.10;;;;;;5074574;28;19935;-77
2022/11/06 02:26:35;;;;;;;;;;;30.30;85.20;;;;;;5051947;28;20340;-74
2022/11/06 02:29:09;;;;;;;;;;;30.10;83.60;;;;;;5052277;28;19909;-78
2022/11/06 02:31:40;;;;;;;;;;;29.60;83.20;;;;;;5053378;28;20378;-80
2022/11/06 02:34:11;;;;;;;;;;;30.20;86.00;;;;;;5085764;28;19970;-73
2022/11/06 02:36:51;;;;;;;;;;;30.90;82.10;;;;;;5070299;28;19930;-70
2022/11/06 02:39:19;;;;;;;;;;;31.10;79.30;;;;;;5060187;28;19920;-77
2022/11/06 02:41:48;;;;;;;;;;;30.50;78.00;;;;;;5072089;28;19916;-79
2022/11/06 02:44:17;;;;;;;;;;;29.60;77.90;;;;;;5082859;28;20278;-77
2022/11/06 02:46:50;;;;;;;;;;;28.70;77.90;;;;;;5072989;28;19921;-76
2022/11/06 02:49:24;;;;;;;;;;;28.10;80.70;;;;;;5091311;28;19944;-75
2022/11/06 02:51:56;;;;;;;;;;;28.30;81.80;;;;;;5055580;28;20011;-77
2022/11/06 02:54:25;;;;;;;;;;;28.70;80.70;;;;;;5071916;28;19948;-76
2022/11/06 02:56:52;;;;;;;;;;;29.40;82.70;;;;;;5072527;28;20273;-78
2022/11/06 02:59:27;;;;;;;;;;;30.30;81.20;;;;;;5092173;28;19931;-74
2022/11/06 03:01:59;;;;;;;;;;;31.00;79.70;;;;;;5084123;28;20380;-74
2022/11/06 03:04:29;;;;;;;;;;;30.60;79.00;;;;;;5070924;28;19955;-76
2022/11/06 03:07:08;;;;;;;;;;;30.00;78.80;;;;;;5072818;28;20247;-75
2022/11/06 03:09:34;;;;;;;;;;;29.40;79.70;;;;;;5082600;28;19912;-77
2022/11/06 03:12:07;;;;;;;;;;;28.90;80.30;;;;;;5074089;28;19912;-77
2022/11/06 03:14:44;;;;;;;;;;;28.30;80.90;;;;;;5091821;28;19920;-77
2022/11/06 03:17:17;;;;;;;;;;;27.80;82.20;;;;;;5082716;28;19913;-77
2022/11/06 03:19:49;;;;;;;;;;;27.50;82.30;;;;;;5087363;28;19922;-77
2022/11/06 03:22:25;;;;;;;;;;;27.30;83.30;;;;;;5090999;28;19918;-78
2022/11/06 03:24:59;;;;;;;;;;;27.20;84.30;;;;;;5082792;28;19913;-77
2022/11/06 03:27:34;;;;;;;;;;;27.50;86.10;;;;;;5080353;28;20388;-76
2022/11/06 03:30:05;;;;;;;;;;;28.20;86.30;;;;;;5094073;28;20639;-78
2022/11/06 03:32:36;;;;;;;;;;;28.30;85.90;;;;;;5090734;28;19958;-78
2022/11/06 03:35:09;;;;;;;;;;;27.90;86.20;;;;;;5095082;28;19923;-76
2022/11/06 03:37:57;;;;;;;;;;;27.90;86.60;;;;;;5091850;28;19912;-79
2022/11/06 03:40:26;;;;;;;;;;;28.20;86.40;;;;;;5095488;28;19908;-79
2022/11/06 03:42:55;;;;;;;;;;;28.70;86.40;;;;;;5080520;28;20374;-78
2022/11/06 03:45:23;;;;;;;;;;;28.90;85.90;;;;;;5073839;28;20397;-76
2022/11/06 03:47:53;;;;;;;;;;;29.10;85.30;;;;;;5085053;28;19938;-77
2022/11/06 03:50:25;;;;;;;;;;;28.70;84.90;;;;;;5095192;28;19961;-75
2022/11/06 03:52:55;;;;;;;;;;;28.50;85.80;;;;;;5091376;28;20397;-79
2022/11/06 03:55:26;;;;;;;;;;;28.70;86.50;;;;;;5095298;28;19934;-80
2022/11/06 03:58:07;;;;;;;;;;;28.60;85.10;;;;;;5091439;28;19916;-81
2022/11/06 04:00:34;;;;;;;;;;;28.10;86.20;;;;;;5077531;28;19944;-79
2022/11/06 04:03:04;;;;;;;;;;;27.40;87.20;;;;;;5085965;28;19912;-81
2022/11/06 04:05:37;;;;;;;;;;;27.00;87.20;;;;;;5095535;28;20548;-82
2022/11/06 04:16:22;;;;;;;;;;;28.00;87.00;;;;;;5071866;28;19974;-80
2022/11/06 04:18:49;;;;;;;;;;;28.30;86.10;;;;;;5056604;28;19909;-80
2022/11/06 04:21:28;;;;;;;;;;;28.40;85.40;;;;;;5053843;28;19996;-79
2022/11/06 04:26:43;;;;;;;;;;;28.60;85.00;;;;;;5072695;28;19924;-79
2022/11/06 04:29:28;;;;;;;;;;;28.70;85.20;;;;;;5094655;28;19962;-78
2022/11/06 04:31:57;;;;;;;;;;;28.80;85.10;;;;;;5090770;28;20012;-80
2022/11/06 04:34:36;;;;;;;;;;;28.70;84.20;;;;;;5090373;28;19924;-77
2022/11/06 04:37:14;;;;;;;;;;;28.70;85.10;;;;;;5084867;28;19963;-80
2022/11/06 04:39:49;;;;;;;;;;;28.50;83.60;;;;;;5075677;28;19912;-74
2022/11/06 04:42:23;;;;;;;;;;;28.40;85.10;;;;;;5068577;28;19938;-78
2022/11/06 04:44:53;;;;;;;;;;;28.30;85.30;;;;;;5079378;28;20308;-79
2022/11/06 04:47:21;;;;;;;;;;;28.30;86.20;;;;;;5078868;28;20329;-79
2022/11/06 04:49:50;;;;;;;;;;;28.30;84.50;;;;;;5077617;28;19913;-78
2022/11/06 04:52:18;;;;;;;;;;;28.20;85.00;;;;;;5064612;28;19917;-79
2022/11/06 04:54:48;;;;;;;;;;;28.00;84.20;;;;;;5053427;28;19917;-78
2022/11/06 04:57:14;;;;;;;;;;;27.70;84.60;;;;;;5067471;28;19912;-78
2022/11/06 04:59:41;;;;;;;;;;;27.70;84.70;;;;;;5094010;28;20305;-79
2022/11/06 05:02:08;;;;;;;;;;;27.70;86.10;;;;;;5091116;28;19958;-77
2022/11/06 05:04:34;;;;;;;;;;;27.70;85.90;;;;;;5085635;28;19912;-79
2022/11/06 05:07:01;;;;;;;;;;;27.70;85.90;;;;;;5076622;28;19985;-78
2022/11/06 05:09:28;;;;;;;;;;;27.70;85.40;;;;;;5075160;28;19920;-78
2022/11/06 05:11:54;;;;;;;;;;;27.70;85.10;;;;;;5108215;27;19912;-78
2022/11/06 05:14:21;;;;;;;;;;;27.60;84.60;;;;;;5093839;28;19916;-77
2022/11/06 05:16:48;;;;;;;;;;;27.50;85.70;;;;;;5084148;28;20367;-77
2022/11/06 05:19:14;;;;;;;;;;;27.50;86.70;;;;;;5053508;28;19926;-77
2022/11/06 05:24:26;;;;;;;;;;;27.50;85.00;;;;;;5074076;28;19970;-77
2022/11/06 05:26:52;;;;;;;;;;;27.40;85.80;;;;;;5075665;28;19916;-74
2022/11/06 05:29:19;;;;;;;;;;;27.50;86.10;;;;;;5093466;28;19947;-75
2022/11/06 05:31:45;;;;;;;;;;;27.50;85.90;;;;;;5086704;28;19927;-76
2022/11/06 05:34:12;;;;;;;;;;;27.50;86.10;;;;;;5088752;28;19993;-78
2022/11/06 05:36:39;;;;;;;;;;;27.50;85.80;;;;;;5084583;28;20393;-77
2022/11/06 05:39:05;;;;;;;;;;;27.60;84.60;;;;;;5093200;28;19908;-79
2022/11/06 05:41:32;;;;;;;;;;;27.60;84.60;;;;;;5088944;28;19920;-74
2022/11/06 05:43:59;;;;;;;;;;;27.50;84.20;;;;;;5062319;28;19916;-77
2022/11/06 05:46:26;;;;;;;;;;;27.30;85.00;;;;;;5070220;28;19916;-79
2022/11/06 05:48:52;;;;;;;;;;;27.10;86.70;;;;;;5086082;28;19920;-71
2022/11/06 05:51:19;;;;;;;;;;;27.00;86.30;;;;;;5070483;28;19916;-75
2022/11/06 05:53:48;;;;;;;;;;;26.80;86.80;;;;;;5086861;28;19970;-77
2022/11/06 05:56:15;;;;;;;;;;;26.50;87.00;;;;;;5070895;28;19913;-78
2022/11/06 05:58:41;;;;;;;;;;;26.40;87.40;;;;;;5088492;28;19908;-72
2022/11/06 06:01:09;;;;;;;;;;;26.10;87.60;;;;;;5072735;28;19935;-80
2022/11/06 06:03:35;;;;;;;;;;;25.80;87.40;;;;;;5089520;28;20052;-79
2022/11/06 06:06:02;;;;;;;;;;;25.60;87.70;;;;;;5092839;28;19912;-78
2022/11/06 06:08:29;;;;;;;;;;;25.40;88.20;;;;;;5071704;28;19962;-77
2022/11/06 06:10:55;;;;;;;;;;;25.30;88.90;;;;;;5072503;28;19916;-72
2022/11/06 06:13:22;;;;;;;;;;;25.40;89.40;;;;;;5087036;28;20255;-75
2022/11/06 06:15:48;;;;;;;;;;;25.30;89.80;;;;;;5089485;28;19916;-75
2022/11/06 06:18:15;;;;;;;;;;;25.30;90.10;;;;;;5070451;28;19913;-76
2022/11/06 06:20:48;;;;;;;;;;;25.20;90.20;;;;;;5072045;28;19957;-77
2022/11/06 06:23:14;;;;;;;;;;;25.20;89.70;;;;;;5070140;28;19916;-75
2022/11/06 06:25:41;;;;;;;;;;;25.00;90.10;;;;;;5071217;28;19916;-77
2022/11/06 06:28:08;;;;;;;;;;;24.90;90.10;;;;;;5084934;28;19914;-77
2022/11/06 06:30:34;;;;;;;;;;;24.70;90.10;;;;;;5092316;28;20271;-76
2022/11/06 06:33:05;;;;;;;;;;;24.60;90.30;;;;;;5074790;28;20338;-74
2022/11/06 06:35:32;;;;;;;;;;;24.40;90.10;;;;;;5072345;28;19909;-76
2022/11/06 06:37:59;;;;;;;;;;;24.20;90.30;;;;;;5083750;28;19912;-71
2022/11/06 06:40:26;;;;;;;;;;;24.10;90.30;;;;;;5085630;28;19912;-74
2022/11/06 06:42:56;;;;;;;;;;;24.00;90.30;;;;;;5082619;28;20282;-73
2022/11/06 06:45:23;;;;;;;;;;;23.90;90.40;;;;;;5073184;28;19913;-70
2022/11/06 06:47:50;;;;;;;;;;;23.70;90.60;;;;;;5082367;28;19912;-78
2022/11/06 06:50:16;;;;;;;;;;;23.50;90.80;;;;;;5085425;28;19965;-75
2022/11/06 06:52:43;;;;;;;;;;;23.40;91.10;;;;;;5069778;28;19916;-71
2022/11/06 06:55:10;;;;;;;;;;;23.20;91.30;;;;;;5087314;28;19962;-75
2022/11/06 06:57:36;;;;;;;;;;;23.20;91.70;;;;;;5079533;28;19916;-78
2022/11/06 07:00:04;;;;;;;;;;;23.10;91.40;;;;;;5074824;28;20247;-79
2022/11/06 07:02:30;;;;;;;;;;;23.00;91.40;;;;;;5083297;28;19923;-75
2022/11/06 07:04:57;;;;;;;;;;;23.00;91.50;;;;;;5096319;28;19912;-78
2022/11/06 07:07:26;;;;;;;;;;;22.90;91.60;;;;;;5084565;28;19917;-78
2022/11/06 07:09:53;;;;;;;;;;;22.80;91.80;;;;;;5075928;28;19919;-79
2022/11/06 07:12:19;;;;;;;;;;;22.80;92.00;;;;;;5080756;28;19912;-74
2022/11/06 07:14:46;;;;;;;;;;;22.70;92.10;;;;;;5082604;28;19950;-73
2022/11/06 07:17:13;;;;;;;;;;;22.70;92.40;;;;;;5073075;28;20361;-77
2022/11/06 07:19:39;;;;;;;;;;;22.70;92.60;;;;;;5074773;28;20317;-78
2022/11/06 07:22:06;;;;;;;;;;;22.60;92.80;;;;;;5078689;28;20001;-79
2022/11/06 07:24:33;;;;;;;;;;;22.50;93.00;;;;;;5086499;28;19915;-77
2022/11/06 07:27:00;;;;;;;;;;;22.40;93.40;;;;;;5073120;28;19944;-77
2022/11/06 07:29:27;;;;;;;;;;;22.20;93.60;;;;;;5075603;28;19970;-75
2022/11/06 07:31:53;;;;;;;;;;;22.10;93.60;;;;;;5077641;28;19998;-78
2022/11/06 07:34:20;;;;;;;;;;;22.00;93.80;;;;;;5095445;28;19924;-75
2022/11/06 07:36:46;;;;;;;;;;;21.90;94.10;;;;;;5088464;28;20324;-79
2022/11/06 07:39:13;;;;;;;;;;;21.80;94.40;;;;;;5091433;28;20346;-76
2022/11/06 07:41:40;;;;;;;;;;;21.70;94.70;;;;;;5085699;28;19971;-75
2022/11/06 07:44:06;;;;;;;;;;;21.70;95.00;;;;;;5091190;28;19965;-75
2022/11/06 07:46:33;;;;;;;;;;;21.60;95.20;;;;;;5074600;28;21879;-76
2022/11/06 07:49:00;;;;;;;;;;;21.50;95.20;;;;;;5095538;28;19908;-78
2022/11/06 07:51:27;;;;;;;;;;;21.50;95.50;;;;;;5091908;28;19912;-76
2022/11/06 07:53:53;;;;;;;;;;;21.40;95.70;;;;;;5095253;28;19970;-77
2022/11/06 07:56:20;;;;;;;;;;;21.30;95.90;;;;;;5092922;28;19909;-76
2022/11/06 07:58:47;;;;;;;;;;;21.20;96.10;;;;;;5083011;28;19913;-77
2022/11/06 08:01:15;;;;;;;;;;;21.10;96.30;;;;;;5073219;27;19913;-74
2022/11/06 08:03:41;;;;;;;;;;;21.10;96.50;;;;;;5093231;28;20358;-78
2022/11/06 08:06:08;;;;;;;;;;;21.10;96.60;;;;;;5094623;28;20255;-79
2022/11/06 08:08:35;;;;;;;;;;;21.00;96.70;;;;;;5091357;28;19912;-78
2022/11/06 08:11:02;;;;;;;;;;;20.90;96.80;;;;;;5095070;28;19916;-78
2022/11/06 08:13:29;;;;;;;;;;;20.80;97.10;;;;;;5087603;28;19923;-78
2022/11/06 08:15:56;;;;;;;;;;;20.70;97.30;;;;;;5073401;28;20383;-75
2022/11/06 08:18:22;;;;;;;;;;;20.60;97.40;;;;;;5087244;28;19955;-79
2022/11/06 08:20:52;;;;;;;;;;;20.50;97.60;;;;;;5084297;28;19913;-72
2022/11/06 08:23:19;;;;;;;;;;;20.40;97.70;;;;;;5086813;28;19912;-77
2022/11/06 08:25:46;;;;;;;;;;;20.40;97.90;;;;;;5057955;28;19999;-77
2022/11/06 08:28:12;;;;;;;;;;;20.30;98.20;;;;;;5087862;28;19922;-75
2022/11/06 08:30:39;;;;;;;;;;;20.30;98.40;;;;;;5071733;28;19920;-78
2022/11/06 08:33:06;;;;;;;;;;;20.20;98.70;;;;;;5074318;28;19948;-76
2022/11/06 08:35:33;;;;;;;;;;;20.20;98.80;;;;;;5074453;28;20458;-75
2022/11/06 08:38:00;;;;;;;;;;;20.10;98.90;;;;;;5085579;28;19969;-77
2022/11/06 08:40:27;;;;;;;;;;;20.10;99.10;;;;;;5094461;28;19919;-78
2022/11/06 08:42:57;;;;;;;;;;;20.00;99.30;;;;;;5090661;28;20014;-76
2022/11/06 08:45:24;;;;;;;;;;;20.00;99.50;;;;;;5075017;28;19912;-78
2022/11/06 08:47:51;;;;;;;;;;;19.90;99.80;;;;;;5084163;28;19912;-78
2022/11/06 08:50:17;;;;;;;;;;;19.80;99.90;;;;;;5078945;28;19915;-77
2022/11/06 08:52:44;;;;;;;;;;;19.80;99.90;;;;;;5081073;28;19925;-78
2022/11/06 08:55:11;;;;;;;;;;;19.70;99.90;;;;;;5091849;28;19970;-78
2022/11/06 08:57:37;;;;;;;;;;;19.70;99.90;;;;;;5090748;28;19958;-78
2022/11/06 09:00:04;;;;;;;;;;;19.70;99.90;;;;;;5077825;28;19917;-77
2022/11/06 09:02:32;;;;;;;;;;;19.70;99.90;;;;;;5080294;28;19919;-78
2022/11/06 09:04:59;;;;;;;;;;;19.60;99.90;;;;;;5081987;28;20007;-76
2022/11/06 09:07:25;;;;;;;;;;;19.60;99.90;;;;;;5071056;28;19922;-77
2022/11/06 09:09:52;;;;;;;;;;;19.50;99.90;;;;;;5073654;28;19961;-78
2022/11/06 09:12:19;;;;;;;;;;;19.40;99.90;;;;;;5078453;28;19912;-77
2022/11/06 09:14:45;;;;;;;;;;;19.40;99.90;;;;;;5093652;28;19927;-77
2022/11/06 09:17:12;;;;;;;;;;;19.40;99.90;;;;;;5077849;28;20007;-77
2022/11/06 09:19:38;;;;;;;;;;;19.40;99.90;;;;;;5093750;28;20262;-74
2022/11/06 09:22:07;;;;;;;;;;;19.30;99.90;;;;;;5070385;28;20301;-77
2022/11/06 09:24:33;;;;;;;;;;;19.30;99.90;;;;;;5071314;28;20366;-77
2022/11/06 09:27:00;;;;;;;;;;;19.30;99.90;;;;;;5074974;28;19916;-76
2022/11/06 09:29:27;;;;;;;;;;;19.20;99.90;;;;;;5077131;28;19967;-77
2022/11/06 09:31:53;;;;;;;;;;;19.20;99.90;;;;;;5076338;28;19919;-77
2022/11/06 09:34:20;;;;;;;;;;;19.20;99.90;;;;;;5092590;28;19924;-77
2022/11/06 09:36:47;;;;;;;;;;;19.20;99.90;;;;;;5087527;28;19966;-76
2022/11/06 09:39:13;;;;;;;;;;;19.20;99.90;;;;;;5092786;28;19908;-76
2022/11/06 09:41:49;;;;;;;;;;;19.10;99.90;;;;;;5072896;28;20007;-75
2022/11/06 09:44:30;;;;;;;;;;;19.10;99.90;;;;;;5072458;28;19908;-78
2022/11/06 09:46:58;;;;;;;;;;;19.10;99.90;;;;;;5075219;28;20004;-75
2022/11/06 09:49:45;;;;;;;;;;;19.00;99.90;;;;;;5092693;28;19918;-77
2022/11/06 09:52:32;;;;;;;;;;;19.00;99.90;;;;;;5088438;28;19912;-78
2022/11/06 09:55:03;;;;;;;;;;;18.90;99.90;;;;;;5092334;28;19917;-76
2022/11/06 09:57:33;;;;;;;;;;;18.80;99.90;;;;;;5079169;28;19913;-75
2022/11/06 10:00:01;;;;;;;;;;;18.80;99.90;;;;;;5072222;28;19908;-75
2022/11/06 10:02:31;;;;;;;;;;;18.80;99.90;;;;;;5078955;28;19922;-78
2022/11/06 10:05:22;;;;;;;;;;;18.70;99.90;;;;;;5092385;28;20323;-77
2022/11/06 10:07:50;;;;;;;;;;;18.70;99.90;;;;;;5088488;28;19916;-76
2022/11/06 10:10:18;;;;;;;;;;;18.70;99.90;;;;;;5092235;28;19912;-76
2022/11/06 10:12:59;;;;;;;;;;;18.60;99.90;;;;;;5086462;28;19916;-79
2022/11/06 10:15:38;;;;;;;;;;;18.70;99.90;;;;;;5066974;28;19970;-75
2022/11/06 10:18:24;;;;;;;;;;;18.60;99.90;;;;;;5079808;28;19919;-76
2022/11/06 10:20:56;;;;;;;;;;;18.60;99.90;;;;;;5072755;28;19916;-77
2022/11/06 10:23:32;;;;;;;;;;;18.50;99.90;;;;;;5065667;28;19913;-76
2022/11/06 10:25:58;;;;;;;;;;;18.50;99.90;;;;;;5070660;28;20012;-75
2022/11/06 10:28:30;;;;;;;;;;;18.50;99.90;;;;;;5069543;28;20393;-75
2022/11/06 10:30:57;;;;;;;;;;;18.40;99.90;;;;;;5069148;28;19916;-75
2022/11/06 10:33:42;;;;;;;;;;;18.40;99.90;;;;;;5086302;28;19932;-75
2022/11/06 10:36:19;;;;;;;;;;;18.40;99.90;;;;;;5067946;28;20298;-77
2022/11/06 10:38:48;;;;;;;;;;;18.30;99.90;;;;;;5082911;28;20293;-78
2022/11/06 10:41:34;;;;;;;;;;;18.30;99.90;;;;;;5077103;28;20385;-76
2022/11/06 10:44:04;;;;;;;;;;;18.30;99.90;;;;;;5057080;28;20310;-76
2022/11/06 10:46:34;;;;;;;;;;;18.20;99.90;;;;;;5070513;28;20018;-75
2022/11/06 10:49:14;;;;;;;;;;;18.20;99.90;;;;;;5069475;28;19963;-74
2022/11/06 10:51:49;;;;;;;;;;;18.10;99.90;;;;;;5071694;28;19947;-74
2022/11/06 10:54:34;;;;;;;;;;;18.00;99.90;;;;;;5091776;28;19927;-78
2022/11/06 10:57:04;;;;;;;;;;;18.00;99.90;;;;;;5077767;28;19962;-77
2022/11/06 10:59:31;;;;;;;;;;;18.00;99.90;;;;;;5070554;28;20498;-77
2022/11/06 11:01:57;;;;;;;;;;;17.90;99.90;;;;;;5079712;28;19916;-76
2022/11/06 11:04:24;;;;;;;;;;;17.90;99.90;;;;;;5071486;28;19909;-78
2022/11/06 11:06:51;;;;;;;;;;;17.90;99.90;;;;;;5072785;28;19912;-77
2022/11/06 11:09:27;;;;;;;;;;;17.80;99.90;;;;;;5091506;28;20284;-75
2022/11/06 11:11:54;;;;;;;;;;;17.80;99.90;;;;;;5084695;28;19920;-77
2022/11/06 11:14:25;;;;;;;;;;;17.80;99.90;;;;;;5091501;28;19942;-78
2022/11/06 11:16:52;;;;;;;;;;;17.70;99.90;;;;;;5077108;28;19919;-78
2022/11/06 11:19:22;;;;;;;;;;;17.70;99.90;;;;;;5077999;28;19912;-78
2022/11/06 11:21:59;;;;;;;;;;;17.60;99.90;;;;;;5069992;28;19916;-77
2022/11/06 11:24:26;;;;;;;;;;;17.60;99.90;;;;;;5071319;28;19909;-77
2022/11/06 11:27:01;;;;;;;;;;;17.50;99.90;;;;;;5073186;28;19915;-76
2022/11/06 11:29:32;;;;;;;;;;;17.40;99.90;;;;;;5091711;28;19916;-77
2022/11/06 11:32:04;;;;;;;;;;;17.40;99.90;;;;;;5082946;28;19908;-77
2022/11/06 11:34:32;;;;;;;;;;;17.30;99.90;;;;;;5049948;28;19929;-77
2022/11/06 11:37:03;;;;;;;;;;;17.30;99.90;;;;;;5035433;28;19924;-76
2022/11/06 11:39:33;;;;;;;;;;;17.20;99.90;;;;;;5049955;28;19916;-77
2022/11/06 11:42:17;;;;;;;;;;;17.10;99.90;;;;;;5050783;28;19920;-76
2022/11/06 11:44:44;;;;;;;;;;;17.10;99.90;;;;;;5044274;28;20375;-76
2022/11/06 11:47:22;;;;;;;;;;;17.00;99.90;;;;;;5039703;28;19940;-77
2022/11/06 11:49:49;;;;;;;;;;;17.00;99.90;;;;;;5053462;28;19913;-76
2022/11/06 11:52:21;;;;;;;;;;;16.90;99.90;;;;;;5051747;28;19958;-75
2022/11/06 11:54:50;;;;;;;;;;;16.90;99.90;;;;;;5054904;28;19970;-76
2022/11/06 11:57:19;;;;;;;;;;;16.80;99.90;;;;;;5052807;28;20393;-76
2022/11/06 11:59:47;;;;;;;;;;;16.80;99.90;;;;;;5054369;28;19909;-75
2022/11/06 12:02:30;;;;;;;;;;;16.70;99.90;;;;;;5041615;28;19935;-79
2022/11/06 12:04:59;;;;;;;;;;;16.70;99.90;;;;;;5055086;28;19917;-76
2022/11/06 12:07:30;;;;;;;;;;;16.70;99.90;;;;;;5045570;28;19917;-76
2022/11/06 12:10:01;;;;;;;;;;;16.70;99.90;;;;;;5034322;28;19917;-76
2022/11/06 12:12:32;;;;;;;;;;;16.70;99.90;;;;;;5042993;28;19920;-77
2022/11/06 12:15:20;;;;;;;;;;;16.80;99.90;;;;;;5054450;28;19917;-77
2022/11/06 12:17:50;;;;;;;;;;;16.80;99.90;;;;;;5048136;28;19999;-78
2022/11/06 12:20:20;;;;;;;;;;;16.80;99.90;;;;;;5054666;28;19955;-77
2022/11/06 12:22:48;;;;;;;;;;;16.70;99.90;;;;;;5052736;28;19988;-77
2022/11/06 12:25:37;;;;;;;;;;;16.70;99.90;;;;;;5054660;28;19909;-75
2022/11/06 12:28:06;;;;;;;;;;;16.70;99.90;;;;;;5052591;28;19913;-78
2022/11/06 12:30:33;;;;;;;;;;;16.60;99.90;;;;;;5053468;28;19954;-77
2022/11/06 12:33:11;;;;;;;;;;;16.60;99.90;;;;;;5047056;28;19920;-77
2022/11/06 12:35:38;;;;;;;;;;;16.50;99.90;;;;;;5074477;28;20383;-76
2022/11/06 12:38:23;;;;;;;;;;;16.50;99.90;;;;;;5086438;28;19938;-73
2022/11/06 12:40:49;;;;;;;;;;;16.50;99.90;;;;;;5094314;28;19908;-76
2022/11/06 12:43:35;;;;;;;;;;;16.40;99.90;;;;;;5089301;28;20374;-74
2022/11/06 12:46:10;;;;;;;;;;;16.40;99.90;;;;;;5064668;28;19957;-77
2022/11/06 12:48:57;;;;;;;;;;;16.30;99.90;;;;;;5080340;28;19923;-78
2022/11/06 12:51:26;;;;;;;;;;;16.20;99.90;;;;;;5088051;28;19969;-79
2022/11/06 12:54:00;;;;;;;;;;;16.20;99.90;;;;;;5062004;28;20383;-78
2022/11/06 12:56:45;;;;;;;;;;;16.10;99.90;;;;;;5081265;28;19921;-77
2022/11/06 12:59:11;;;;;;;;;;;16.10;99.90;;;;;;5093766;28;19915;-76
2022/11/06 13:01:38;;;;;;;;;;;16.00;99.90;;;;;;5090324;28;19916;-77
2022/11/06 13:04:16;;;;;;;;;;;16.00;99.90;;;;;;5086220;28;19978;-76
2022/11/06 13:07:01;;;;;;;;;;;15.90;99.90;;;;;;5069729;28;20067;-75
2022/11/06 13:09:28;;;;;;;;;;;15.90;99.90;;;;;;5072036;28;19909;-75
2022/11/06 13:12:00;;;;;;;;;;;15.90;99.90;;;;;;5069961;28;19916;-77
2022/11/06 13:14:39;;;;;;;;;;;15.80;99.90;;;;;;5071790;28;19927;-77
2022/11/06 13:17:05;;;;;;;;;;;15.80;99.90;;;;;;5067904;28;19951;-78
2022/11/06 13:19:36;;;;;;;;;;;15.70;99.90;;;;;;5072573;28;20390;-77
2022/11/06 13:22:20;;;;;;;;;;;15.70;99.90;;;;;;5076518;28;20445;-77
2022/11/06 13:25:05;;;;;;;;;;;15.70;99.90;;;;;;5093428;28;19912;-77
2022/11/06 13:27:31;;;;;;;;;;;15.70;99.90;;;;;;5087251;28;19935;-76
2022/11/06 13:30:03;;;;;;;;;;;15.70;99.90;;;;;;5088214;28;19957;-77
2022/11/06 13:32:32;;;;;;;;;;;15.70;99.90;;;;;;5075483;28;20253;-73
2022/11/06 13:34:59;;;;;;;;;;;15.70;99.90;;;;;;5091083;28;19920;-77
2022/11/06 13:37:38;;;;;;;;;;;15.60;99.90;;;;;;5085536;28;20025;-77
2022/11/06 13:40:15;;;;;;;;;;;15.60;99.90;;;;;;5073171;28;19912;-76
2022/11/06 13:42:44;;;;;;;;;;;15.50;99.90;;;;;;5082312;28;20010;-77
2022/11/06 13:45:14;;;;;;;;;;;15.40;99.90;;;;;;5093515;28;19930;-75
2022/11/06 13:47:49;;;;;;;;;;;15.40;99.90;;;;;;5090183;28;19923;-75
2022/11/06 13:50:24;;;;;;;;;;;15.30;99.90;;;;;;5093373;28;19912;-76
2022/11/06 13:52:57;;;;;;;;;;;15.30;99.90;;;;;;5089961;28;19920;-76
2022/11/06 13:55:23;;;;;;;;;;;15.30;99.90;;;;;;5073442;28;20019;-76
2022/11/06 13:57:56;;;;;;;;;;;15.30;99.90;;;;;;5083509;28;19962;-77
2022/11/06 14:00:24;;;;;;;;;;;15.30;99.90;;;;;;5093193;28;19908;-77
2022/11/06 14:03:09;;;;;;;;;;;15.20;99.90;;;;;;5089637;28;20263;-75
2022/11/06 14:05:35;;;;;;;;;;;15.30;99.90;;;;;;5075651;28;20013;-74
2022/11/06 14:08:04;;;;;;;;;;;15.20;99.90;;;;;;5057534;28;20343;-75
2022/11/06 14:10:38;;;;;;;;;;;15.20;99.90;;;;;;5052492;28;19916;-75
2022/11/06 14:13:05;;;;;;;;;;;15.10;99.90;;;;;;5066635;28;19923;-77
2022/11/06 14:15:41;;;;;;;;;;;15.10;99.90;;;;;;5071476;28;20005;-75
2022/11/06 14:18:12;;;;;;;;;;;15.00;99.90;;;;;;5085085;28;19925;-75
2022/11/06 14:20:39;;;;;;;;;;;15.00;99.90;;;;;;5092558;28;19908;-76
2022/11/06 14:23:32;;;;;;;;;;;15.00;99.90;;;;;;5089299;28;19912;-76
2022/11/06 14:26:03;;;;;;;;;;;15.00;99.90;;;;;;5051737;28;19958;-77
2022/11/06 14:28:32;;;;;;;;;;;15.00;99.90;;;;;;5067867;28;19966;-73
2022/11/06 14:30:59;;;;;;;;;;;14.90;99.90;;;;;;5069956;28;19912;-75
2022/11/06 14:33:51;;;;;;;;;;;14.90;99.90;;;;;;5080300;28;19928;-75
2022/11/06 14:36:24;;;;;;;;;;;14.90;99.90;;;;;;5068068;28;20396;-76
2022/11/06 14:38:54;;;;;;;;;;;14.90;99.90;;;;;;5056335;28;19919;-74
2022/11/06 14:41:38;;;;;;;;;;;14.90;99.90;;;;;;5069869;28;19913;-76
2022/11/06 14:44:20;;;;;;;;;;;14.90;99.90;;;;;;5058175;28;19912;-76
2022/11/06 14:46:52;;;;;;;;;;;14.80;99.90;;;;;;5073306;28;19916;-75
2022/11/06 14:49:40;;;;;;;;;;;14.80;99.90;;;;;;5091145;28;19908;-77